Adventuress — WCX8691 — position and weather

sailwx.info

Track history (hours):
 
Tides and Currents Weather Stations Pressure Air Temp Water Temp Dewpoint Dewpoint Depression Visibility Wind Speed Wind Dir Waves Ship Positions

Adventuress (United States)

Ship's website: http://www.soundexp.org/

Owner: SOUND EXPERIENCE, PORT TOWNSEND, WA. More information available from US FCC via Universal Licensing System and Coast Guard Vessel Documentation Center.

Last reported at 2015-May-22 11:32 UTC. Time now 2015-May-22 11:38 UTC.
Position N 48°31' W 122°36'.

Type: Passenger vessel. MMSI: 367323180.

Date/timePositionNaut miles runAvg speedWind from/ knotsBaromVisibWave heightAir tempDewpointWater temp
2015-May-22 11:32N 48°31' W 122°36'0 0.0
2015-May-22 10:32N 48°31' W 122°36'0 0.0
2015-May-22 09:32N 48°31' W 122°36'0 0.0
2015-May-22 08:32N 48°31' W 122°36'0 0.0
2015-May-22 07:32N 48°31' W 122°36'0 0.0
2015-May-22 06:32N 48°31' W 122°36'0 0.0
2015-May-22 05:32N 48°31' W 122°36'0 0.0
2015-May-22 04:32N 48°31' W 122°36'0 0.0
2015-May-22 03:32N 48°31' W 122°36'0 0.0
2015-May-22 02:32N 48°31' W 122°36'0 0.0
2015-May-22 01:32N 48°31' W 122°36'0 0.0
2015-May-22 00:32N 48°31' W 122°36'0 0.0
2015-May-21 23:32N 48°31' W 122°36'0 0.0
2015-May-21 22:32N 48°31' W 122°36'0 0.0
2015-May-21 21:20N 48°31' W 122°36'0 0.0
2015-May-21 20:32N 48°31' W 122°36'0 0.0
2015-May-21 19:32N 48°31' W 122°36'0 0.0
2015-May-21 18:32N 48°31' W 122°36'0 0.0
2015-May-21 17:32N 48°31' W 122°36'0 0.1
2015-May-21 16:33N 48°31' W 122°36'4 0.2
2015-May-20 21:26N 48°34' W 122°37'2 2.3
2015-May-20 20:27N 48°36' W 122°38'14 3.5
2015-May-20 16:19N 48°46' W 122°54'0 0.0
2015-May-20 13:10N 48°46' W 122°54'0 0.1
2015-May-20 12:25N 48°46' W 122°54'0 0.0
2015-May-20 09:16N 48°46' W 122°54'1 0.1
2015-May-19 20:20N 48°45' W 122°54'5 4.1
2015-May-19 19:06N 48°41' W 122°59'3 3.2
2015-May-19 18:06N 48°38' W 123°02'2 0.2
2015-May-19 11:17N 48°37' W 123°00'0 0.0
2015-May-19 08:23N 48°37' W 123°00'0 0.0
2015-May-19 07:32N 48°37' W 123°00'9 0.7
2015-May-18 19:31N 48°39' W 123°13'1 4.7
2015-May-18 19:13N 48°40' W 123°15'2 2.5
2015-May-18 18:29N 48°41' W 123°15'2 2.2
2015-May-18 17:32N 48°41' W 123°12'0 0.0
2015-May-18 12:19N 48°41' W 123°12'0 0.0
2015-May-17 22:18N 48°41' W 123°12'2 2.7
2015-May-17 21:33N 48°41' W 123°09'6 5.2
2015-May-17 20:26N 48°36' W 123°04'2 2.1
2015-May-17 19:14N 48°35' W 123°00'3 4.8
2015-May-17 18:31N 48°35' W 122°55'2 0.5
2015-May-17 14:09N 48°34' W 122°53'0 0.0
2015-May-17 12:06N 48°34' W 122°53'0 0.0
2015-May-17 09:33N 48°34' W 122°53'0 0.0
2015-May-17 06:33N 48°34' W 122°53'0 0.0
2015-May-17 02:18N 48°34' W 122°53'0 0.0
2015-May-17 01:20N 48°34' W 122°53'1 1.1
2015-May-17 00:33N 48°34' W 122°51'10 0.4
2015-May-15 20:10N 48°31' W 122°36'0 0.0
2015-May-15 19:28N 48°31' W 122°36'0 0.0
2015-May-15 18:28N 48°31' W 122°36'0 0.0
2015-May-15 17:28N 48°31' W 122°36'0 0.0
2015-May-15 16:28N 48°31' W 122°36'0 0.0
2015-May-15 15:22N 48°31' W 122°36'0 0.0
2015-May-15 14:28N 48°31' W 122°36'0 0.0
2015-May-15 13:28N 48°31' W 122°36'0 0.0
2015-May-15 12:28N 48°31' W 122°36'0 0.0
2015-May-15 11:28N 48°31' W 122°36'0 0.0
2015-May-15 10:28N 48°31' W 122°36'0 0.0
2015-May-15 09:28N 48°31' W 122°36'0 0.0
2015-May-15 08:28N 48°31' W 122°36'0 0.0
2015-May-15 07:22N 48°31' W 122°36'0 0.0
2015-May-15 06:28N 48°31' W 122°36'0 0.0
2015-May-15 05:28N 48°31' W 122°36'0 0.0
2015-May-15 04:28N 48°31' W 122°36'0 0.0
2015-May-15 03:28N 48°31' W 122°36'0 0.0
2015-May-15 02:28N 48°31' W 122°36'0 0.0
2015-May-15 01:33N 48°31' W 122°36'3 2.7
2015-May-15 00:17N 48°34' W 122°35'  
Track history (hours):
 
Tides and Currents Weather Stations Pressure Air Temp Water Temp Dewpoint Dewpoint Depression Visibility Wind Speed Wind Dir Waves Ship Positions

Adventuress (United States)

Ship's website: http://www.soundexp.org/

Owner: SOUND EXPERIENCE, PORT TOWNSEND, WA. More information available from US FCC via Universal Licensing System and Coast Guard Vessel Documentation Center.

Last reported at 2015-May-22 11:32 UTC. Time now 2015-May-22 11:38 UTC.
Position N 48°31' W 122°36'.

Type: Passenger vessel. MMSI: 367323180.

Date/timePositionNaut miles runAvg speedWind from/ knotsBaromVisibWave heightAir tempDewpointWater temp
2015-May-22 11:32N 48°31' W 122°36'0 0.0
2015-May-22 10:32N 48°31' W 122°36'0 0.0
2015-May-22 09:32N 48°31' W 122°36'0 0.0
2015-May-22 08:32N 48°31' W 122°36'0 0.0
2015-May-22 07:32N 48°31' W 122°36'0 0.0
2015-May-22 06:32N 48°31' W 122°36'0 0.0
2015-May-22 05:32N 48°31' W 122°36'0 0.0
2015-May-22 04:32N 48°31' W 122°36'0 0.0
2015-May-22 03:32N 48°31' W 122°36'0 0.0
2015-May-22 02:32N 48°31' W 122°36'0 0.0
2015-May-22 01:32N 48°31' W 122°36'0 0.0
2015-May-22 00:32N 48°31' W 122°36'0 0.0
2015-May-21 23:32N 48°31' W 122°36'0 0.0
2015-May-21 22:32N 48°31' W 122°36'0 0.0
2015-May-21 21:20N 48°31' W 122°36'0 0.0
2015-May-21 20:32N 48°31' W 122°36'0 0.0
2015-May-21 19:32N 48°31' W 122°36'0 0.0
2015-May-21 18:32N 48°31' W 122°36'0 0.0
2015-May-21 17:32N 48°31' W 122°36'0 0.1
2015-May-21 16:33N 48°31' W 122°36'4 0.2
2015-May-20 21:26N 48°34' W 122°37'2 2.3
2015-May-20 20:27N 48°36' W 122°38'14 3.5
2015-May-20 16:19N 48°46' W 122°54'0 0.0
2015-May-20 13:10N 48°46' W 122°54'0 0.1
2015-May-20 12:25N 48°46' W 122°54'0 0.0
2015-May-20 09:16N 48°46' W 122°54'1 0.1
2015-May-19 20:20N 48°45' W 122°54'5 4.1
2015-May-19 19:06N 48°41' W 122°59'3 3.2
2015-May-19 18:06N 48°38' W 123°02'2 0.2
2015-May-19 11:17N 48°37' W 123°00'0 0.0
2015-May-19 08:23N 48°37' W 123°00'0 0.0
2015-May-19 07:32N 48°37' W 123°00'9 0.7
2015-May-18 19:31N 48°39' W 123°13'1 4.7
2015-May-18 19:13N 48°40' W 123°15'2 2.5
2015-May-18 18:29N 48°41' W 123°15'2 2.2
2015-May-18 17:32N 48°41' W 123°12'0 0.0
2015-May-18 12:19N 48°41' W 123°12'0 0.0
2015-May-17 22:18N 48°41' W 123°12'2 2.7
2015-May-17 21:33N 48°41' W 123°09'6 5.2
2015-May-17 20:26N 48°36' W 123°04'2 2.1
2015-May-17 19:14N 48°35' W 123°00'3 4.8
2015-May-17 18:31N 48°35' W 122°55'2 0.5
2015-May-17 14:09N 48°34' W 122°53'0 0.0
2015-May-17 12:06N 48°34' W 122°53'0 0.0
2015-May-17 09:33N 48°34' W 122°53'0 0.0
2015-May-17 06:33N 48°34' W 122°53'0 0.0
2015-May-17 02:18N 48°34' W 122°53'0 0.0
2015-May-17 01:20N 48°34' W 122°53'1 1.1
2015-May-17 00:33N 48°34' W 122°51'10 0.4
2015-May-15 20:10N 48°31' W 122°36'0 0.0
2015-May-15 19:28N 48°31' W 122°36'0 0.0
2015-May-15 18:28N 48°31' W 122°36'0 0.0
2015-May-15 17:28N 48°31' W 122°36'0 0.0
2015-May-15 16:28N 48°31' W 122°36'0 0.0
2015-May-15 15:22N 48°31' W 122°36'0 0.0
2015-May-15 14:28N 48°31' W 122°36'0 0.0
2015-May-15 13:28N 48°31' W 122°36'0 0.0
2015-May-15 12:28N 48°31' W 122°36'0 0.0
2015-May-15 11:28N 48°31' W 122°36'0 0.0
2015-May-15 10:28N 48°31' W 122°36'0 0.0
2015-May-15 09:28N 48°31' W 122°36'0 0.0
2015-May-15 08:28N 48°31' W 122°36'0 0.0
2015-May-15 07:22N 48°31' W 122°36'0 0.0
2015-May-15 06:28N 48°31' W 122°36'0 0.0
2015-May-15 05:28N 48°31' W 122°36'0 0.0
2015-May-15 04:28N 48°31' W 122°36'0 0.0
2015-May-15 03:28N 48°31' W 122°36'0 0.0
2015-May-15 02:28N 48°31' W 122°36'0 0.0
2015-May-15 01:33N 48°31' W 122°36'3 2.7
2015-May-15 00:17N 48°34' W 122°35'  

Dump ship's entire track history